Terminal Aerodrome Forecast
Issued by NWS

Home | Current Version | Previous Version | Text Only | Print | Product List | Glossary On
Versions: 1 2 3 4 5 6 7 8 9 10 11 12 13 14
000
FTUS42 KMLB 292000 AAA
TAFISM
TAF AMD
KISM 292007Z 2920/3018 28012KT P6SM VCTS SCT035CB SCT080 BKN250
      TEMPO 2921/2922 27014G24KT 3SM TSRA BKN025CB OVC080
     FM300000 24005KT P6SM FEW040 SCT250
     FM301400 32004KT P6SM SCT025=

USA.gov is the U.S. government's official web portal to all federal, state and local government web resources and services.